createdAt,value
2022-09-12T00:03:31.946Z,10.15
2022-09-12T00:08:34.824Z,11.98
2022-09-12T00:13:41.655Z,10.57
2022-09-12T00:18:47.277Z,11.15
2022-09-12T00:23:50.503Z,12.02
2022-09-12T00:28:53.435Z,10.70
2022-09-12T00:34:00.579Z,10.23
2022-09-12T00:39:04.403Z,11.20
2022-09-12T00:44:40.529Z,12.82
2022-09-12T00:49:49.651Z,11.13
2022-09-12T00:54:57.574Z,10.20
2022-09-12T01:00:05.721Z,9.60
2022-09-12T01:05:11.057Z,9.48
2022-09-12T01:10:13.727Z,10.25
2022-09-12T01:15:16.587Z,10.57
2022-09-12T01:20:47.356Z,9.30
2022-09-12T01:26:06.788Z,9.20
2022-09-12T01:31:16.036Z,10.65
2022-09-12T01:36:38.116Z,9.60
2022-09-12T01:41:53.856Z,9.68
2022-09-12T01:47:03.409Z,9.98
2022-09-12T01:52:13.436Z,8.95
2022-09-12T01:57:21.745Z,9.43
2022-09-12T02:02:32.995Z,9.63
2022-09-12T02:07:40.584Z,9.45
2022-09-12T02:12:49.102Z,10.00
2022-09-12T02:17:55.261Z,9.30
2022-09-12T02:22:59.253Z,10.32
2022-09-12T02:28:07.610Z,9.73
2022-09-12T02:33:21.737Z,8.65
2022-09-12T02:38:29.199Z,11.13
2022-09-12T02:48:41.519Z,9.15
2022-09-12T02:53:44.386Z,8.68
2022-09-12T02:58:47.791Z,8.93
2022-09-12T03:04:04.963Z,8.70
2022-09-12T03:09:14.866Z,9.65
2022-09-12T03:14:37.079Z,7.93
2022-09-12T03:19:52.500Z,7.57
2022-09-12T03:25:04.239Z,7.22
2022-09-12T03:30:08.300Z,7.60
2022-09-12T03:35:13.599Z,8.25
2022-09-12T03:40:18.579Z,8.23
2022-09-12T03:45:21.267Z,8.15
2022-09-12T03:50:25.370Z,8.60
2022-09-12T03:55:28.275Z,8.00
2022-09-12T04:00:30.968Z,7.68
2022-09-12T04:05:36.409Z,8.75
2022-09-12T04:10:39.089Z,8.63
2022-09-12T04:15:41.868Z,8.70
2022-09-12T04:20:46.012Z,7.70
2022-09-12T04:25:55.687Z,7.53
2022-09-12T04:31:02.742Z,7.68
2022-09-12T04:36:10.038Z,9.57
2022-09-12T04:41:13.691Z,13.50
2022-09-12T04:46:19.771Z,11.40
2022-09-12T04:51:27.660Z,13.95
2022-09-12T04:56:31.545Z,12.30
2022-09-12T05:01:34.667Z,13.55
2022-09-12T05:06:39.906Z,13.82
2022-09-12T05:12:04.221Z,13.07
2022-09-12T05:17:07.706Z,14.43
2022-09-12T05:22:11.777Z,13.70
2022-09-12T05:27:14.481Z,14.05
2022-09-12T05:32:17.162Z,13.25
2022-09-12T05:37:21.237Z,13.10
2022-09-12T05:42:24.018Z,12.77
2022-09-12T05:47:26.845Z,13.05
2022-09-12T05:52:31.029Z,13.02
2022-09-12T05:57:34.246Z,11.07
2022-09-12T06:02:37.079Z,11.25
2022-09-12T06:07:41.250Z,9.73
2022-09-12T06:12:46.211Z,9.90
2022-09-12T06:17:51.455Z,10.07
2022-09-12T06:22:55.678Z,9.73
2022-09-12T06:27:58.390Z,10.18
2022-09-12T06:33:01.068Z,10.48
2022-09-12T06:38:05.421Z,9.80
2022-09-12T06:43:08.102Z,9.90
2022-09-12T06:48:10.841Z,9.52
2022-09-12T06:53:14.846Z,8.48
2022-09-12T06:58:17.578Z,8.70
2022-09-12T07:03:20.593Z,9.90
2022-09-12T07:08:25.836Z,10.05
2022-09-12T07:13:28.595Z,9.93
2022-09-12T07:18:31.470Z,10.05
2022-09-12T07:23:35.598Z,10.10
2022-09-12T07:28:38.343Z,10.90
2022-09-12T07:33:42.181Z,10.07
2022-09-12T07:38:47.401Z,9.65
2022-09-12T07:43:53.101Z,11.00
2022-09-12T07:48:59.306Z,12.77
2022-09-12T07:54:03.577Z,11.05
2022-09-12T07:59:06.264Z,10.00
2022-09-12T08:04:09.122Z,10.35
2022-09-12T08:09:15.287Z,10.40
2022-09-12T08:14:18.273Z,11.05
2022-09-12T08:19:22.662Z,11.85
2022-09-12T08:24:26.803Z,10.30
2022-09-12T08:29:30.023Z,11.35
2022-09-12T08:34:32.815Z,11.57
2022-09-12T08:39:37.079Z,10.65
2022-09-12T08:45:04.845Z,11.68
2022-09-12T08:50:17.685Z,10.27
2022-09-12T08:55:32.216Z,11.88
2022-09-12T09:00:42.869Z,13.57
2022-09-12T09:05:52.798Z,11.05
2022-09-12T09:11:06.039Z,11.23
2022-09-12T09:16:17.026Z,11.63
2022-09-12T09:21:24.771Z,11.45
2022-09-12T09:26:36.318Z,11.07
2022-09-12T09:31:40.951Z,13.00
2022-09-12T09:36:50.716Z,12.07
2022-09-12T09:42:09.723Z,12.15
2022-09-12T09:47:13.567Z,10.65
2022-09-12T09:52:22.079Z,11.32
2022-09-12T09:57:52.341Z,10.90
2022-09-12T10:03:18.903Z,11.93
2022-09-12T10:13:33.283Z,9.90
2022-09-12T10:18:39.107Z,10.50
2022-09-12T10:23:43.174Z,8.93
2022-09-12T10:28:52.047Z,8.13
2022-09-12T10:33:55.959Z,9.20
2022-09-12T10:39:02.242Z,8.68
2022-09-12T10:44:15.797Z,9.33
2022-09-12T10:49:40.314Z,8.85
2022-09-12T10:54:43.353Z,8.82
2022-09-12T11:00:03.522Z,7.55
2022-09-12T11:05:17.455Z,7.00
2022-09-12T11:10:38.069Z,7.15
2022-09-12T11:16:02.892Z,7.20
2022-09-12T11:21:20.545Z,7.90
2022-09-12T11:26:35.904Z,6.93
2022-09-12T11:31:52.851Z,6.32
2022-09-12T11:37:16.210Z,5.10
2022-09-12T11:42:29.673Z,5.38
2022-09-12T11:47:37.436Z,6.28
2022-09-12T11:52:40.638Z,4.80
2022-09-12T11:57:46.293Z,4.88
2022-09-12T12:02:58.688Z,4.73
2022-09-12T12:08:03.323Z,5.22
2022-09-12T12:13:14.011Z,4.57
2022-09-12T12:18:21.011Z,4.40
2022-09-12T12:23:30.129Z,4.25
2022-09-12T12:29:00.913Z,3.88
2022-09-12T12:34:24.018Z,4.75
2022-09-12T12:40:00.979Z,3.72
2022-09-12T12:45:05.303Z,3.30
2022-09-12T12:55:52.099Z,3.58
2022-09-12T13:01:08.701Z,3.33
2022-09-12T13:06:31.443Z,3.63
2022-09-12T13:11:37.545Z,2.80
2022-09-12T13:16:52.699Z,2.85
2022-09-12T13:22:02.148Z,2.88
2022-09-12T13:27:04.977Z,2.80
2022-09-12T13:32:07.773Z,2.80
2022-09-12T13:37:26.365Z,2.40
2022-09-12T13:42:43.702Z,2.55
2022-09-12T13:47:48.570Z,2.45
2022-09-12T13:52:56.016Z,2.60
2022-09-12T13:58:01.518Z,2.75
2022-09-12T14:03:42.827Z,2.53
2022-09-12T14:08:48.436Z,2.67
2022-09-12T14:13:52.622Z,2.60
2022-09-12T14:18:56.086Z,3.17
2022-09-12T14:24:00.772Z,2.85
2022-09-12T14:29:06.574Z,3.08
2022-09-12T14:34:11.950Z,3.30
2022-09-12T14:39:25.532Z,3.33
2022-09-12T14:44:29.586Z,2.92
2022-09-12T14:49:35.590Z,2.88
2022-09-12T14:54:56.295Z,2.90
2022-09-12T15:00:20.467Z,3.50
2022-09-12T15:05:26.415Z,2.92
2022-09-12T15:10:33.244Z,3.40
2022-09-12T15:15:36.811Z,3.05
2022-09-12T15:20:40.978Z,2.88
2022-09-12T15:25:45.037Z,3.10
2022-09-12T15:30:49.513Z,3.05
2022-09-12T15:35:53.518Z,3.55
2022-09-12T15:40:57.676Z,2.65
2022-09-12T15:46:04.369Z,3.08
2022-09-12T15:51:09.946Z,2.97
2022-09-12T15:56:17.438Z,2.60
2022-09-12T16:01:20.273Z,2.33
2022-09-12T16:06:23.429Z,3.30
2022-09-12T16:11:28.539Z,2.65
2022-09-12T16:16:31.305Z,2.30
2022-09-12T16:21:33.975Z,2.35
2022-09-12T16:26:38.125Z,2.40
2022-09-12T16:31:41.852Z,2.40
2022-09-12T16:36:45.229Z,2.65
2022-09-12T16:41:49.368Z,2.35
2022-09-12T16:46:52.107Z,2.30
2022-09-12T16:51:54.811Z,2.33
2022-09-12T16:56:59.763Z,2.50
2022-09-12T17:02:03.254Z,3.13
2022-09-12T17:07:06.286Z,2.90
2022-09-12T17:12:10.687Z,3.00
2022-09-12T17:17:13.383Z,2.60
2022-09-12T17:22:16.049Z,3.25
2022-09-12T17:27:20.794Z,3.35
2022-09-12T17:32:24.598Z,4.50
2022-09-12T17:37:27.974Z,4.47
2022-09-12T17:42:32.074Z,3.67
2022-09-12T17:47:35.156Z,3.28
2022-09-12T17:52:38.531Z,3.35
2022-09-12T17:57:43.901Z,3.65
2022-09-12T18:02:47.411Z,3.55
2022-09-12T18:07:50.298Z,2.92
2022-09-12T18:12:54.395Z,2.90
2022-09-12T18:17:57.081Z,2.53
2022-09-12T18:23:00.188Z,3.03
2022-09-12T18:28:09.166Z,3.13
2022-09-12T18:33:12.098Z,3.15
2022-09-12T18:38:14.912Z,4.13
2022-09-12T18:43:19.348Z,3.75
2022-09-12T18:48:22.072Z,3.70
2022-09-12T18:53:25.513Z,3.60
2022-09-12T18:58:29.905Z,3.30
2022-09-12T19:03:32.884Z,3.30
2022-09-12T19:08:36.551Z,3.83
2022-09-12T19:13:42.279Z,3.22
2022-09-12T19:18:46.996Z,5.10
2022-09-12T19:23:50.181Z,3.95
2022-09-12T19:28:54.922Z,4.25
2022-09-12T19:34:01.733Z,4.15
2022-09-12T19:39:05.843Z,4.32
2022-09-12T19:44:10.027Z,4.47
2022-09-12T19:49:13.634Z,4.10
2022-09-12T19:54:16.408Z,4.05
2022-09-12T19:59:20.519Z,4.10
2022-09-12T20:04:23.947Z,3.80
2022-09-12T20:09:26.605Z,3.92
2022-09-12T20:14:30.993Z,4.40
2022-09-12T20:19:34.949Z,4.50
2022-09-12T20:24:38.274Z,4.68
2022-09-12T20:29:42.323Z,4.78
2022-09-12T20:34:45.295Z,4.32
2022-09-12T20:39:50.867Z,4.28
2022-09-12T20:44:55.960Z,4.43
2022-09-12T20:49:58.679Z,4.75
2022-09-12T20:55:01.537Z,4.97
2022-09-12T21:00:08.781Z,5.07
2022-09-12T21:10:14.071Z,4.30
2022-09-12T21:15:18.375Z,4.53
2022-09-12T21:20:21.129Z,5.40
2022-09-12T21:25:24.631Z,5.18
2022-09-12T21:30:29.820Z,5.43
2022-09-12T21:35:35.229Z,4.65
2022-09-12T21:40:38.252Z,5.25
2022-09-12T21:45:42.414Z,5.05
2022-09-12T21:50:50.695Z,5.38
2022-09-12T21:55:53.671Z,4.25
2022-09-12T22:00:58.006Z,5.90
2022-09-12T22:06:02.512Z,5.15
2022-09-12T22:11:09.439Z,5.00
2022-09-12T22:16:13.679Z,5.30
2022-09-12T22:21:19.105Z,4.63
2022-09-12T22:26:22.151Z,5.45
2022-09-12T22:31:26.950Z,5.43
2022-09-12T22:36:31.407Z,5.85
2022-09-12T22:41:35.061Z,5.47
2022-09-12T22:46:39.649Z,6.13
2022-09-12T22:51:42.618Z,4.95
2022-09-12T22:56:45.528Z,5.70
2022-09-12T23:01:49.661Z,6.15
2022-09-12T23:06:52.961Z,6.28
2022-09-12T23:11:56.203Z,6.30
2022-09-12T23:17:00.226Z,5.00
2022-09-12T23:22:02.895Z,5.78
2022-09-12T23:27:06.113Z,4.93
2022-09-12T23:32:10.504Z,5.38
2022-09-12T23:37:13.607Z,5.45
2022-09-12T23:42:16.666Z,5.88
2022-09-12T23:47:22.945Z,5.65
2022-09-12T23:52:25.669Z,5.95
2022-09-12T23:57:28.779Z,5.53
